Time;durP1;ratioP1;P1;durP2;ratioP2;P2;SDS_P1;SDS_P2;PMS_P1;PMS_P2;Temp;Humidity;BMP_temperature;BMP_pressure;BME280_temperature;BME280_humidity;BME280_pressure;Samples;Min_cycle;Max_cycle;Signal;HPM_P1;HPM_P2
2023/10/25 00:00:16;;;;;;;225.15;25.17;;;6.70;99.90;;;;;;4987137;28;20057;-59
2023/10/25 00:02:44;;;;;;;176.05;23.38;;;6.70;99.90;;;;;;4984412;28;20384;-59
2023/10/25 00:05:11;;;;;;;203.23;24.70;;;6.80;99.90;;;;;;4977422;28;20494;-59
2023/10/25 00:07:39;;;;;;;235.98;25.10;;;6.80;99.90;;;;;;4972751;28;20050;-58
2023/10/25 00:10:10;;;;;;;129.23;19.30;;;6.80;99.90;;;;;;4972595;28;20411;-59
2023/10/25 00:12:38;;;;;;;151.88;20.98;;;6.80;99.90;;;;;;4975537;28;20038;-58
2023/10/25 00:15:06;;;;;;;69.75;15.30;;;6.80;99.90;;;;;;4973539;28;20062;-59
2023/10/25 00:17:34;;;;;;;107.22;15.15;;;6.80;99.90;;;;;;4978386;28;20051;-59
2023/10/25 00:20:02;;;;;;;54.88;15.00;;;6.70;99.90;;;;;;4985333;28;20042;-58
2023/10/25 00:22:30;;;;;;;59.92;15.18;;;6.70;99.90;;;;;;4984962;28;20364;-59
2023/10/25 00:24:57;;;;;;;68.30;15.27;;;6.60;99.90;;;;;;4975446;28;20062;-60
2023/10/25 00:27:25;;;;;;;106.80;15.45;;;6.60;99.90;;;;;;4979378;28;20050;-59
2023/10/25 00:29:53;;;;;;;56.53;14.32;;;6.50;99.90;;;;;;4980637;28;20061;-58
2023/10/25 00:32:21;;;;;;;82.80;16.67;;;6.50;99.90;;;;;;4967680;28;20042;-58
2023/10/25 00:34:49;;;;;;;65.55;15.00;;;6.40;99.90;;;;;;4979953;28;20050;-59
2023/10/25 00:37:16;;;;;;;74.30;14.32;;;6.40;99.90;;;;;;4980090;28;20062;-59
2023/10/25 00:39:44;;;;;;;74.82;14.50;;;6.30;99.90;;;;;;4988610;28;20054;-60
2023/10/25 00:42:12;;;;;;;76.13;14.20;;;6.30;99.90;;;;;;4986467;28;20038;-60
2023/10/25 00:44:39;;;;;;;40.95;13.07;;;6.20;99.90;;;;;;4975789;28;20057;-59
2023/10/25 00:47:07;;;;;;;41.92;13.32;;;6.20;99.90;;;;;;4976380;28;20522;-58
2023/10/25 00:49:35;;;;;;;34.63;12.27;;;6.10;99.90;;;;;;4974311;28;20039;-59
2023/10/25 00:52:03;;;;;;;33.60;12.73;;;6.10;99.90;;;;;;4976024;28;20038;-58
2023/10/25 00:54:31;;;;;;;34.10;12.15;;;6.00;99.90;;;;;;4975113;28;20050;-59
2023/10/25 00:56:59;;;;;;;35.25;13.32;;;5.90;99.90;;;;;;4969284;28;20057;-58
2023/10/25 00:59:27;;;;;;;40.90;13.40;;;5.90;99.90;;;;;;4976727;28;20046;-58
2023/10/25 01:01:58;;;;;;;42.95;13.35;;;5.90;99.90;;;;;;4975248;28;20065;-59
2023/10/25 01:04:28;;;;;;;36.65;13.07;;;5.80;99.90;;;;;;4984603;28;20043;-58
2023/10/25 01:06:55;;;;;;;40.58;13.20;;;5.80;99.90;;;;;;4976030;28;20471;-59
2023/10/25 01:09:23;;;;;;;30.65;11.82;;;5.80;99.90;;;;;;4978747;28;20045;-62
2023/10/25 01:11:51;;;;;;;30.88;12.90;;;5.70;99.90;;;;;;4981728;28;20046;-59
2023/10/25 01:14:19;;;;;;;34.25;11.98;;;5.70;99.90;;;;;;4979543;28;20055;-61
2023/10/25 01:16:47;;;;;;;33.33;13.60;;;5.60;99.90;;;;;;4981990;28;20423;-60
2023/10/25 01:19:15;;;;;;;34.45;12.48;;;5.60;99.90;;;;;;4988069;28;20509;-61
2023/10/25 01:21:43;;;;;;;29.90;12.57;;;5.60;99.90;;;;;;4979757;28;20403;-61
2023/10/25 01:24:12;;;;;;;33.47;13.07;;;5.50;99.90;;;;;;4947745;28;20408;-61
2023/10/25 01:26:40;;;;;;;31.45;12.70;;;5.50;99.90;;;;;;4983412;28;20039;-61
2023/10/25 01:29:08;;;;;;;27.90;11.75;;;5.50;99.90;;;;;;4981832;28;20402;-61
2023/10/25 01:31:36;;;;;;;31.42;12.55;;;5.40;99.90;;;;;;4975684;28;20078;-61
2023/10/25 01:34:04;;;;;;;41.50;13.85;;;5.40;99.90;;;;;;4980782;28;20042;-61
2023/10/25 01:36:32;;;;;;;34.10;12.85;;;5.40;99.90;;;;;;4972507;28;20054;-61
2023/10/25 01:38:59;;;;;;;30.65;12.25;;;5.30;99.90;;;;;;4982732;28;20042;-60
2023/10/25 01:41:27;;;;;;;30.63;11.98;;;5.40;99.90;;;;;;4976023;28;20384;-61
2023/10/25 01:43:57;;;;;;;32.55;12.93;;;5.30;99.90;;;;;;4990487;28;20042;-61
2023/10/25 01:46:27;;;;;;;;;;;5.30;99.90;;;;;;4983978;28;20035;-61
2023/10/25 01:48:59;;;;;;;28.85;11.80;;;5.30;99.90;;;;;;4961779;28;20294;-61
2023/10/25 01:51:27;;;;;;;26.08;11.13;;;5.30;99.90;;;;;;4983940;28;20107;-61
2023/10/25 01:53:55;;;;;;;28.75;10.88;;;5.30;99.90;;;;;;4983630;28;20057;-61
2023/10/25 01:56:23;;;;;;;25.88;11.07;;;5.20;99.90;;;;;;4990441;28;20062;-61
2023/10/25 01:58:50;;;;;;;26.10;11.68;;;5.30;99.90;;;;;;4976380;28;20062;-60
2023/10/25 02:01:18;;;;;;;29.65;11.40;;;5.30;99.90;;;;;;4970563;28;20063;-61
2023/10/25 02:03:46;;;;;;;25.98;11.48;;;5.30;99.90;;;;;;4980625;28;20045;-61
2023/10/25 02:06:14;;;;;;;24.05;11.02;;;5.20;99.90;;;;;;4981223;28;20055;-58
2023/10/25 02:08:42;;;;;;;25.52;10.75;;;5.10;99.90;;;;;;4982977;28;20058;-58
2023/10/25 02:11:15;;;;;;;23.20;9.90;;;5.10;99.90;;;;;;4983164;28;20050;-57
2023/10/25 02:13:43;;;;;;;23.83;10.07;;;5.10;99.90;;;;;;4979699;28;20047;-58
2023/10/25 02:16:15;;;;;;;26.25;10.98;;;5.10;99.90;;;;;;4972032;28;20054;-60
2023/10/25 02:18:44;;;;;;;24.77;10.85;;;5.00;99.90;;;;;;4980112;28;20042;-61
2023/10/25 02:21:12;;;;;;;24.63;10.15;;;5.00;99.90;;;;;;4991544;28;20054;-61
2023/10/25 02:23:40;;;;;;;28.52;10.65;;;5.00;99.90;;;;;;4984905;28;20042;-61
2023/10/25 02:26:08;;;;;;;23.80;9.90;;;5.00;99.90;;;;;;4984455;28;20053;-61
2023/10/25 02:28:35;;;;;;;27.15;10.57;;;5.00;99.90;;;;;;4994323;28;20043;-61
2023/10/25 02:31:03;;;;;;;23.30;9.63;;;4.90;99.90;;;;;;4985774;28;20042;-60
2023/10/25 02:33:31;;;;;;;25.10;10.68;;;4.90;99.90;;;;;;4983202;28;20043;-61
2023/10/25 02:35:59;;;;;;;28.08;11.52;;;4.90;99.90;;;;;;4981798;28;20057;-61
2023/10/25 02:38:26;;;;;;;20.52;9.60;;;4.80;99.90;;;;;;4988557;28;20042;-61
2023/10/25 02:40:55;;;;;;;26.35;10.18;;;4.80;99.90;;;;;;4974721;28;20031;-61
2023/10/25 02:43:23;;;;;;;26.77;11.55;;;4.70;99.90;;;;;;4980065;28;20051;-60
2023/10/25 02:45:52;;;;;;;23.88;9.65;;;4.70;99.90;;;;;;4989428;28;20038;-60
2023/10/25 02:48:23;;;;;;;27.88;10.52;;;4.70;99.90;;;;;;4990992;28;20049;-61
2023/10/25 02:50:51;;;;;;;28.48;10.25;;;4.60;99.90;;;;;;4978418;28;20077;-59
2023/10/25 02:53:19;;;;;;;28.10;10.98;;;4.70;99.90;;;;;;4959682;28;20055;-60
2023/10/25 02:55:48;;;;;;;27.30;11.15;;;4.60;99.90;;;;;;4990580;28;20051;-60
2023/10/25 02:58:16;;;;;;;33.97;10.48;;;4.60;99.90;;;;;;4974084;28;20050;-59
2023/10/25 03:00:43;;;;;;;28.63;10.65;;;4.60;99.90;;;;;;4991506;28;20046;-61
2023/10/25 03:03:11;;;;;;;24.48;10.45;;;4.60;99.90;;;;;;4977828;28;20050;-59
2023/10/25 03:05:39;;;;;;;27.10;11.70;;;4.60;99.90;;;;;;4973317;28;20047;-58
2023/10/25 03:08:07;;;;;;;29.00;10.20;;;4.60;99.90;;;;;;4975477;28;20050;-60
2023/10/25 03:10:35;;;;;;;28.42;10.43;;;4.60;99.90;;;;;;4974085;28;20513;-62
2023/10/25 03:13:03;;;;;;;20.48;9.45;;;4.60;99.90;;;;;;4985467;28;20514;-59
2023/10/25 03:15:30;;;;;;;28.85;10.18;;;4.60;99.90;;;;;;4994698;28;20046;-61
2023/10/25 03:17:58;;;;;;;25.02;9.88;;;4.50;99.90;;;;;;4993419;28;20046;-62
2023/10/25 03:20:26;;;;;;;30.48;9.70;;;4.50;99.90;;;;;;4992202;28;20050;-59
2023/10/25 03:22:56;;;;;;;23.58;10.27;;;4.50;99.90;;;;;;4990764;28;20050;-62
2023/10/25 03:25:27;;;;;;;24.67;10.57;;;4.50;99.90;;;;;;4993248;28;20042;-62
2023/10/25 03:27:55;;;;;;;33.63;10.20;;;4.40;99.90;;;;;;4990510;28;20089;-59
2023/10/25 03:30:23;;;;;;;25.02;9.30;;;4.40;99.90;;;;;;4974092;28;20511;-60
2023/10/25 03:32:51;;;;;;;23.27;9.32;;;4.40;99.90;;;;;;4974680;28;20051;-61
2023/10/25 03:35:19;;;;;;;23.67;8.88;;;4.40;99.90;;;;;;4982797;28;20045;-59
2023/10/25 03:37:46;;;;;;;29.88;9.90;;;4.30;99.90;;;;;;4992231;28;20061;-58
2023/10/25 03:40:14;;;;;;;25.38;10.07;;;4.30;99.90;;;;;;4980725;28;20055;-61
2023/10/25 03:42:42;;;;;;;23.00;9.10;;;4.30;99.90;;;;;;4981177;28;20407;-58
2023/10/25 03:45:27;;;;;;;24.23;9.93;;;4.30;99.90;;;;;;4982781;28;20053;-58
2023/10/25 03:47:55;;;;;;;21.98;9.88;;;4.30;99.90;;;;;;4989166;28;20038;-58
2023/10/25 03:50:25;;;;;;;28.52;10.15;;;4.20;99.90;;;;;;4986369;28;20046;-58
2023/10/25 03:52:53;;;;;;;23.08;8.07;;;4.20;99.90;;;;;;4985806;28;20046;-59
2023/10/25 03:55:21;;;;;;;27.02;10.38;;;4.20;99.90;;;;;;4982460;28;20221;-60
2023/10/25 03:57:50;;;;;;;24.50;9.68;;;4.20;99.90;;;;;;4976650;28;20051;-59
2023/10/25 04:00:17;;;;;;;25.02;9.50;;;4.10;99.90;;;;;;4972734;28;20043;-60
2023/10/25 04:02:45;;;;;;;24.95;8.70;;;4.20;99.90;;;;;;4983745;28;20050;-60
2023/10/25 04:05:13;;;;;;;26.40;9.93;;;4.10;99.90;;;;;;4985790;28;20042;-60
2023/10/25 04:07:41;;;;;;;28.15;9.70;;;4.20;99.90;;;;;;4986187;28;20059;-59
2023/10/25 04:10:11;;;;;;;25.58;10.48;;;4.20;99.90;;;;;;4974049;28;20046;-59
2023/10/25 04:12:39;;;;;;;24.48;9.30;;;4.20;99.90;;;;;;4980563;28;20054;-60
2023/10/25 04:15:07;;;;;;;28.05;9.55;;;4.20;99.90;;;;;;4992492;28;20046;-60
2023/10/25 04:17:36;;;;;;;23.73;9.02;;;4.10;99.90;;;;;;4992190;28;20046;-60
2023/10/25 04:20:04;;;;;;;25.75;9.35;;;4.10;99.90;;;;;;4991999;28;20053;-59
2023/10/25 04:22:34;;;;;;;27.02;10.20;;;4.10;99.90;;;;;;4974506;28;20059;-60
2023/10/25 04:25:03;;;;;;;27.67;10.30;;;4.10;99.90;;;;;;4978540;28;20050;-59
2023/10/25 04:27:31;;;;;;;28.15;9.40;;;4.10;99.90;;;;;;4980897;28;20060;-59
2023/10/25 04:29:58;;;;;;;27.83;10.00;;;4.10;99.90;;;;;;4973559;28;20042;-58
2023/10/25 04:32:26;;;;;;;21.90;9.25;;;4.00;99.90;;;;;;4973568;28;20051;-59
2023/10/25 04:34:57;;;;;;;18.05;8.13;;;4.00;99.90;;;;;;4975590;28;20038;-59
2023/10/25 04:37:25;;;;;;;20.40;9.00;;;4.00;99.90;;;;;;4992027;28;20130;-59
2023/10/25 04:39:53;;;;;;;20.20;7.63;;;4.00;99.90;;;;;;4993127;28;20047;-59
2023/10/25 04:42:24;;;;;;;20.30;8.48;;;3.90;99.90;;;;;;4978174;28;20486;-58
2023/10/25 04:44:52;;;;;;;27.83;9.88;;;3.90;99.90;;;;;;4974805;28;20396;-58
2023/10/25 04:47:20;;;;;;;20.90;10.35;;;3.90;99.90;;;;;;4986636;28;20057;-58
2023/10/25 04:49:51;;;;;;;20.58;8.32;;;3.90;99.90;;;;;;4972277;28;20047;-59
2023/10/25 04:52:19;;;;;;;21.45;8.77;;;3.80;99.90;;;;;;4979653;28;20065;-59
2023/10/25 04:54:50;;;;;;;22.40;8.27;;;3.80;99.90;;;;;;4976263;28;20035;-58
2023/10/25 04:57:19;;;;;;;31.35;10.70;;;3.80;99.90;;;;;;4981239;28;20058;-58
2023/10/25 04:59:46;;;;;;;22.83;8.75;;;3.80;99.90;;;;;;4981957;28;20046;-58
2023/10/25 05:02:15;;;;;;;25.70;8.70;;;3.80;99.90;;;;;;4970288;28;20329;-59
2023/10/25 05:04:43;;;;;;;36.45;9.20;;;3.80;99.90;;;;;;4986323;28;20054;-58
2023/10/25 05:07:12;;;;;;;24.33;9.17;;;3.80;99.90;;;;;;4981077;28;20103;-59
2023/10/25 05:09:46;;;;;;;27.90;9.27;;;3.80;99.90;;;;;;4986667;28;20296;-60
2023/10/25 05:12:17;;;;;;;33.22;9.93;;;3.80;99.90;;;;;;4983777;28;20057;-59
2023/10/25 05:14:46;;;;;;;25.38;9.10;;;3.80;99.90;;;;;;4977495;28;20399;-59
2023/10/25 05:17:14;;;;;;;31.92;9.43;;;3.80;99.90;;;;;;4985825;28;20050;-60
2023/10/25 05:19:45;;;;;;;28.45;9.30;;;3.80;99.90;;;;;;4988153;28;20070;-60
2023/10/25 05:22:14;;;;;;;23.90;8.25;;;3.80;99.90;;;;;;4982990;28;20521;-61
2023/10/25 05:24:43;;;;;;;22.60;7.73;;;3.80;99.90;;;;;;4985645;28;20057;-59
2023/10/25 05:27:11;;;;;;;18.23;7.47;;;3.70;99.90;;;;;;4982393;28;20415;-59
2023/10/25 05:29:40;;;;;;;25.70;8.05;;;3.70;99.90;;;;;;4969360;28;20047;-59
2023/10/25 05:32:14;;;;;;;22.88;8.82;;;3.70;99.90;;;;;;4976825;28;20058;-60
2023/10/25 05:34:43;;;;;;;27.00;8.60;;;3.70;99.90;;;;;;4988932;28;20506;-60
2023/10/25 05:37:11;;;;;;;26.85;9.07;;;3.60;99.90;;;;;;4973955;28;20049;-59
2023/10/25 05:39:42;;;;;;;23.00;7.72;;;3.60;99.90;;;;;;4968912;28;20043;-59
2023/10/25 05:42:16;;;;;;;32.97;8.88;;;3.70;99.90;;;;;;4979497;28;20126;-58
2023/10/25 05:44:45;;;;;;;45.25;11.27;;;3.70;99.90;;;;;;4976922;28;20053;-60
2023/10/25 05:47:14;;;;;;;36.47;9.95;;;3.70;99.90;;;;;;4982956;28;20042;-59
2023/10/25 05:49:46;;;;;;;37.35;10.55;;;3.80;99.90;;;;;;4983341;28;20051;-60
2023/10/25 05:52:14;;;;;;;36.72;9.68;;;3.90;99.90;;;;;;4974037;28;20734;-60
2023/10/25 05:54:42;;;;;;;47.58;10.57;;;3.90;99.90;;;;;;4981068;28;20498;-59
2023/10/25 05:57:12;;;;;;;39.75;10.63;;;3.90;99.90;;;;;;4975975;28;20038;-59
2023/10/25 06:00:05;;;;;;;39.55;9.32;;;3.90;99.90;;;;;;4965471;28;20514;-59
2023/10/25 06:02:33;;;;;;;42.38;9.35;;;3.90;99.90;;;;;;4975275;28;20070;-59
2023/10/25 06:05:03;;;;;;;25.77;8.98;;;3.90;99.90;;;;;;4967132;28;20474;-59
2023/10/25 06:07:40;;;;;;;28.48;8.40;;;3.80;99.90;;;;;;4971621;28;20073;-60
2023/10/25 06:10:08;;;;;;;36.75;9.23;;;3.80;99.90;;;;;;4982591;28;20051;-59
2023/10/25 06:12:37;;;;;;;42.03;9.68;;;3.80;99.90;;;;;;4978084;28;20073;-60
2023/10/25 06:15:08;;;;;;;60.58;11.90;;;3.70;99.90;;;;;;4970660;28;20046;-59
2023/10/25 06:17:36;;;;;;;31.00;9.25;;;3.70;99.90;;;;;;4976403;28;20042;-60
2023/10/25 06:20:05;;;;;;;40.33;9.95;;;3.70;99.90;;;;;;4978849;28;20043;-59
2023/10/25 06:22:33;;;;;;;61.33;10.05;;;3.60;99.90;;;;;;4967354;28;20043;-60
2023/10/25 06:25:04;;;;;;;71.43;10.48;;;3.60;99.90;;;;;;4973121;28;20047;-59
2023/10/25 06:27:33;;;;;;;50.08;10.90;;;3.60;99.90;;;;;;4982666;28;20601;-59
2023/10/25 06:30:01;;;;;;;85.40;11.32;;;3.60;99.90;;;;;;4985798;28;20047;-60
2023/10/25 06:32:30;;;;;;;114.65;11.35;;;3.60;99.90;;;;;;4985761;28;20063;-60
2023/10/25 06:35:18;;;;;;;127.57;11.20;;;3.60;99.90;;;;;;4969462;28;20054;-59
2023/10/25 06:37:50;;;;;;;98.72;12.00;;;3.60;99.90;;;;;;4969620;28;20589;-59
2023/10/25 06:40:21;;;;;;;75.63;11.90;;;3.50;99.90;;;;;;4969668;28;20381;-58
2023/10/25 06:42:52;;;;;;;105.28;15.77;;;3.60;99.90;;;;;;4976334;28;20383;-58
2023/10/25 06:45:21;;;;;;;56.13;12.00;;;3.60;99.90;;;;;;4980887;28;20510;-57
2023/10/25 06:47:49;;;;;;;31.33;11.70;;;3.60;99.90;;;;;;4973221;28;20054;-60
2023/10/25 06:50:17;;;;;;;28.02;9.98;;;3.60;99.90;;;;;;4976364;28;20050;-58
2023/10/25 06:52:45;;;;;;;90.10;16.40;;;3.60;99.90;;;;;;4976052;28;20050;-58
2023/10/25 06:55:14;;;;;;;62.17;12.60;;;3.50;99.90;;;;;;4971478;28;20050;-59
2023/10/25 06:57:43;;;;;;;37.15;11.68;;;3.60;99.90;;;;;;4971537;28;20050;-58
2023/10/25 07:00:11;;;;;;;27.92;10.60;;;3.50;99.90;;;;;;4966980;28;20042;-58
2023/10/25 07:03:01;;;;;;;40.80;11.18;;;3.60;99.90;;;;;;4982107;28;20043;-59
2023/10/25 07:05:30;;;;;;;55.42;12.65;;;3.60;99.90;;;;;;4977708;28;20054;-58
2023/10/25 07:07:58;;;;;;;59.15;12.93;;;3.60;99.90;;;;;;4985524;28;20722;-60
2023/10/25 07:10:26;;;;;;;75.40;12.35;;;3.60;99.90;;;;;;4988249;28;20062;-58
2023/10/25 07:12:59;;;;;;;85.25;16.27;;;3.70;99.90;;;;;;4986485;28;20494;-58
2023/10/25 07:15:27;;;;;;;;;;;3.70;99.90;;;;;;4983207;28;20414;-58
2023/10/25 07:17:55;;;;;;;88.07;17.83;;;3.80;99.90;;;;;;4975345;28;19929;-58
2023/10/25 07:20:44;;;;;;;76.22;16.65;;;3.80;99.90;;;;;;4966836;28;20059;-58
2023/10/25 07:23:12;;;;;;;91.43;18.90;;;3.90;99.90;;;;;;4977421;28;20700;-60
2023/10/25 07:25:40;;;;;;;77.03;18.65;;;3.90;99.90;;;;;;4978716;28;20050;-61
2023/10/25 07:28:07;;;;;;;91.05;17.70;;;4.00;99.90;;;;;;4981295;28;20046;-60
2023/10/25 07:30:35;;;;;;;64.72;17.30;;;4.10;99.90;;;;;;4967753;28;20073;-59
2023/10/25 07:33:03;;;;;;;64.90;16.73;;;4.10;99.90;;;;;;4975317;28;20046;-59
2023/10/25 07:35:31;;;;;;;67.38;16.67;;;4.20;99.90;;;;;;4984225;28;20046;-61
2023/10/25 07:37:59;;;;;;;68.65;17.50;;;4.20;99.90;;;;;;4979065;28;20058;-62
2023/10/25 07:40:27;;;;;;;68.75;15.77;;;4.30;99.90;;;;;;4985842;28;20054;-62
2023/10/25 07:42:56;;;;;;;77.30;18.17;;;4.40;99.90;;;;;;4978469;28;20055;-61
2023/10/25 07:45:24;;;;;;;125.25;18.60;;;4.50;99.90;;;;;;4970920;28;20054;-59
2023/10/25 07:47:51;;;;;;;335.90;22.92;;;4.60;99.90;;;;;;4975763;28;20053;-60
2023/10/25 07:50:20;;;;;;;161.00;18.20;;;4.60;99.90;;;;;;4990434;28;20130;-62
2023/10/25 07:52:48;;;;;;;152.45;18.92;;;4.60;99.90;;;;;;4974163;28;20054;-60
2023/10/25 07:55:16;;;;;;;223.02;18.88;;;4.70;99.90;;;;;;4987626;28;20050;-61
2023/10/25 07:58:03;;;;;;;253.45;18.95;;;4.80;99.90;;;;;;4990252;28;20050;-62
2023/10/25 08:00:51;;;;;;;250.60;18.65;;;4.90;99.90;;;;;;4990754;28;20042;-61
2023/10/25 08:03:19;;;;;;;277.30;19.65;;;4.90;99.90;;;;;;4977585;28;20054;-61
2023/10/25 08:05:47;;;;;;;166.32;16.98;;;5.00;99.90;;;;;;4970002;28;20499;-63
2023/10/25 08:08:15;;;;;;;136.15;14.23;;;5.10;99.90;;;;;;4974387;28;20513;-61
2023/10/25 08:10:42;;;;;;;236.82;18.85;;;5.10;99.90;;;;;;4970844;28;20058;-62
2023/10/25 08:13:10;;;;;;;157.35;15.88;;;5.20;99.90;;;;;;4976728;28;20511;-61
2023/10/25 08:15:38;;;;;;;124.70;14.05;;;5.20;99.90;;;;;;4971832;28;20054;-62
2023/10/25 08:18:06;;;;;;;179.65;18.98;;;5.30;99.90;;;;;;4976090;28;20053;-61
2023/10/25 08:20:36;;;;;;;157.18;16.13;;;5.30;99.90;;;;;;4973556;28;20060;-61
2023/10/25 08:23:04;;;;;;;133.13;14.68;;;5.40;99.90;;;;;;4975532;28;20050;-61
2023/10/25 08:25:35;;;;;;;170.15;17.48;;;5.40;99.90;;;;;;4971180;28;20042;-60
2023/10/25 08:28:03;;;;;;;164.40;17.58;;;5.50;99.90;;;;;;4984283;28;20050;-60
2023/10/25 08:30:30;;;;;;;121.05;17.17;;;5.50;99.90;;;;;;4981387;28;20052;-62
2023/10/25 08:32:58;;;;;;;111.15;19.30;;;5.60;99.90;;;;;;4978837;28;20054;-62
2023/10/25 08:35:26;;;;;;;112.15;20.45;;;5.70;99.90;;;;;;4989089;28;20077;-61
2023/10/25 08:37:54;;;;;;;156.85;21.05;;;5.80;99.90;;;;;;4971861;28;20038;-62
2023/10/25 08:40:25;;;;;;;169.60;20.15;;;5.80;99.90;;;;;;4977261;28;20046;-60
2023/10/25 08:42:52;;;;;;;85.50;17.88;;;5.90;99.90;;;;;;4987184;28;20049;-63
2023/10/25 08:45:23;;;;;;;117.88;14.10;;;6.00;99.90;;;;;;4976295;28;20050;-61
2023/10/25 08:47:52;;;;;;;92.55;11.48;;;6.10;99.90;;;;;;4974004;28;20062;-61
2023/10/25 08:50:20;;;;;;;71.47;11.45;;;6.20;99.90;;;;;;4985944;28;20042;-61
2023/10/25 08:52:51;;;;;;;68.55;11.27;;;6.20;99.90;;;;;;4976491;28;20050;-59
2023/10/25 08:55:19;;;;;;;87.65;12.82;;;6.30;99.90;;;;;;4979427;28;20047;-60
2023/10/25 08:57:54;;;;;;;101.82;12.30;;;6.40;99.90;;;;;;4983295;28;20062;-60
2023/10/25 09:00:23;;;;;;;91.57;13.38;;;6.40;99.90;;;;;;4976227;28;20050;-59
2023/10/25 09:03:05;;;;;;;97.63;12.75;;;6.50;99.90;;;;;;4976093;28;20065;-61
2023/10/25 09:05:43;;;;;;;87.65;11.82;;;6.50;99.90;;;;;;4989376;28;20479;-60
2023/10/25 09:08:14;;;;;;;87.88;9.52;;;6.60;99.90;;;;;;4984191;28;20066;-60
2023/10/25 09:10:42;;;;;;;104.90;9.30;;;6.60;99.90;;;;;;4970071;28;20043;-60
2023/10/25 09:13:16;;;;;;;62.08;9.35;;;6.60;99.90;;;;;;4985418;28;20482;-60
2023/10/25 09:15:43;;;;;;;81.70;10.75;;;6.60;99.90;;;;;;4988876;28;20047;-60
2023/10/25 09:18:11;;;;;;;69.28;9.82;;;6.70;99.90;;;;;;4976701;28;20430;-60
2023/10/25 09:20:39;;;;;;;85.40;11.13;;;6.80;99.90;;;;;;4989453;28;20049;-60
2023/10/25 09:23:11;;;;;;;75.78;10.95;;;6.80;99.90;;;;;;4986215;28;20077;-59
2023/10/25 09:25:39;;;;;;;77.15;11.88;;;6.80;99.90;;;;;;4972618;28;20049;-59
2023/10/25 09:28:27;;;;;;;110.93;13.07;;;6.90;99.90;;;;;;4980115;28;20047;-59
2023/10/25 09:30:59;;;;;;;98.30;11.05;;;7.00;99.90;;;;;;4985460;28;20043;-58
2023/10/25 09:33:31;;;;;;;72.55;10.50;;;7.10;99.90;;;;;;4982480;28;20047;-59
2023/10/25 09:35:58;;;;;;;68.13;11.10;;;7.10;99.90;;;;;;4985772;28;20626;-60
2023/10/25 09:38:26;;;;;;;106.25;12.13;;;7.20;99.90;;;;;;4977664;28;20050;-59
2023/10/25 09:40:55;;;;;;;78.00;11.18;;;7.30;99.90;;;;;;4970106;28;20035;-59
2023/10/25 09:43:24;;;;;;;142.93;13.50;;;7.40;99.90;;;;;;4984195;28;20054;-59
2023/10/25 09:45:56;;;;;;;72.68;10.20;;;7.40;99.90;;;;;;4974539;28;20054;-59
2023/10/25 09:48:25;;;;;;;134.45;13.32;;;7.50;99.90;;;;;;4976400;28;20050;-59
2023/10/25 09:51:20;;;;;;;102.07;12.55;;;7.50;99.90;;;;;;4970041;28;20066;-61
2023/10/25 09:53:58;;;;;;;64.70;12.15;;;7.60;99.90;;;;;;4981836;28;20065;-61
2023/10/25 09:56:27;;;;;;;74.40;11.90;;;7.60;99.90;;;;;;4988795;28;20047;-62
2023/10/25 09:58:56;;;;;;;60.70;12.50;;;7.70;99.90;;;;;;4988514;28;20062;-62
2023/10/25 10:01:24;;;;;;;55.22;11.07;;;7.80;99.90;;;;;;4982695;28;20046;-60
2023/10/25 10:03:59;;;;;;;35.50;10.18;;;7.90;99.90;;;;;;4984366;28;20053;-58
2023/10/25 10:06:45;;;;;;;43.75;9.50;;;8.00;99.90;;;;;;4988507;28;20075;-59
2023/10/25 10:09:37;;;;;;;49.53;9.73;;;8.10;99.90;;;;;;4975236;28;20051;-59
2023/10/25 10:12:06;;;;;;;57.58;9.30;;;8.20;99.90;;;;;;4971256;28;20069;-59
2023/10/25 10:14:36;;;;;;;56.30;8.20;;;8.20;99.90;;;;;;4988500;28;20050;-59
2023/10/25 10:17:14;;;;;;;46.22;10.05;;;8.20;99.90;;;;;;4988021;28;20062;-58
2023/10/25 10:19:47;;;;;;;84.28;10.80;;;8.30;99.90;;;;;;4985996;28;20057;-58
2023/10/25 10:22:19;;;;;;;35.05;10.32;;;8.30;99.90;;;;;;4988548;28;20069;-60
2023/10/25 10:24:48;;;;;;;51.83;9.23;;;8.30;99.90;;;;;;4984168;28;20054;-60
2023/10/25 10:27:17;;;;;;;;;;;8.40;99.90;;;;;;4989043;28;20042;-58
2023/10/25 10:29:46;;;;;;;36.05;8.95;;;8.40;99.90;;;;;;4988148;28;19925;-58
2023/10/25 10:32:15;;;;;;;64.73;8.80;;;8.40;99.90;;;;;;4974167;28;20043;-58
2023/10/25 10:34:43;;;;;;;60.00;9.65;;;8.50;99.90;;;;;;4987023;28;20304;-59
2023/10/25 10:37:17;;;;;;;47.75;8.90;;;8.50;99.90;;;;;;4977967;28;20047;-58
2023/10/25 10:39:56;;;;;;;28.98;9.52;;;8.40;99.90;;;;;;4979508;28;20055;-59
2023/10/25 10:42:30;;;;;;;28.23;9.52;;;8.50;99.90;;;;;;4986428;28;20060;-58
2023/10/25 10:45:05;;;;;;;36.42;8.70;;;8.50;99.90;;;;;;4991797;28;20050;-58
2023/10/25 10:47:42;;;;;;;36.35;9.30;;;8.50;99.90;;;;;;4974491;28;20065;-58
2023/10/25 10:50:12;;;;;;;25.60;8.32;;;8.40;99.90;;;;;;4974916;28;20545;-58
2023/10/25 10:52:42;;;;;;;37.88;9.52;;;8.50;99.90;;;;;;4988569;28;20142;-59
2023/10/25 10:55:20;;;;;;;30.92;9.82;;;8.50;99.90;;;;;;4978619;28;20799;-58
2023/10/25 10:57:48;;;;;;;68.38;9.93;;;8.50;99.90;;;;;;4988972;28;20039;-58
2023/10/25 11:00:34;;;;;;;130.68;13.02;;;8.50;99.90;;;;;;4972469;28;20557;-59
2023/10/25 11:03:02;;;;;;;32.58;9.10;;;8.50;99.90;;;;;;4987258;28;20042;-60
2023/10/25 11:05:37;;;;;;;79.32;10.90;;;8.40;99.90;;;;;;4991419;28;20042;-58
2023/10/25 11:08:13;;;;;;;45.53;10.57;;;8.40;99.90;;;;;;4991080;28;20053;-57
2023/10/25 11:10:42;;;;;;;41.53;9.82;;;8.40;99.90;;;;;;4989523;28;20058;-60
2023/10/25 11:13:10;;;;;;;29.42;11.60;;;8.40;99.90;;;;;;4989862;28;20391;-59
2023/10/25 11:15:38;;;;;;;28.67;10.45;;;8.50;99.90;;;;;;4984207;28;20059;-59
2023/10/25 11:18:08;;;;;;;21.50;8.97;;;8.50;99.90;;;;;;4983371;28;20482;-57
2023/10/25 11:20:38;;;;;;;17.70;8.80;;;8.60;99.90;;;;;;4991546;28;20143;-57
2023/10/25 11:23:06;;;;;;;33.60;8.95;;;8.70;99.90;;;;;;4991112;28;20134;-58
2023/10/25 11:25:34;;;;;;;19.52;9.02;;;8.80;99.90;;;;;;4983575;28;20528;-60
2023/10/25 11:28:04;;;;;;;24.60;9.70;;;8.90;99.90;;;;;;4990998;28;20042;-59
2023/10/25 11:30:34;;;;;;;;;;;8.90;99.90;;;;;;4991505;28;20038;-59
2023/10/25 11:33:04;;;;;;;21.70;8.00;;;8.90;99.90;;;;;;4980974;28;19938;-58
2023/10/25 11:35:34;;;;;;;16.13;7.87;;;8.90;99.90;;;;;;4971869;28;20062;-59
2023/10/25 11:38:02;;;;;;;16.98;7.93;;;9.00;99.90;;;;;;4975654;28;20072;-58
2023/10/25 11:40:39;;;;;;;17.38;8.52;;;9.00;99.90;;;;;;4970878;28;20053;-58
2023/10/25 11:43:07;;;;;;;16.17;8.07;;;9.10;99.90;;;;;;4990472;28;20054;-58
2023/10/25 11:45:36;;;;;;;15.95;7.82;;;9.10;99.90;;;;;;4990818;28;20050;-58
2023/10/25 11:48:08;;;;;;;12.77;6.90;;;9.20;99.90;;;;;;4972914;28;20050;-58
2023/10/25 11:50:36;;;;;;;20.67;7.93;;;9.30;99.90;;;;;;4981224;28;20494;-59
2023/10/25 11:53:04;;;;;;;14.75;7.00;;;9.40;99.90;;;;;;4989950;28;20050;-58
2023/10/25 11:55:32;;;;;;;16.35;7.22;;;9.40;99.90;;;;;;4977562;28;20483;-57
2023/10/25 11:58:01;;;;;;;13.57;6.40;;;9.50;99.90;;;;;;4975784;28;20057;-60
2023/10/25 12:00:29;;;;;;;18.67;7.68;;;9.60;99.90;;;;;;4990619;28;20065;-58
2023/10/25 12:02:57;;;;;;;18.63;8.23;;;9.70;99.90;;;;;;4990350;28;20051;-57
2023/10/25 12:05:25;;;;;;;14.55;6.85;;;9.80;99.90;;;;;;4990557;28;20509;-58
2023/10/25 12:07:53;;;;;;;16.40;7.18;;;9.90;99.90;;;;;;4976597;28;20047;-59
2023/10/25 12:10:22;;;;;;;14.23;6.53;;;10.10;99.90;;;;;;4984455;28;20046;-57
2023/10/25 12:12:49;;;;;;;14.10;6.60;;;10.20;99.90;;;;;;4989747;28;20065;-57
2023/10/25 12:15:17;;;;;;;11.70;6.65;;;10.30;99.90;;;;;;4990274;28;20042;-57
2023/10/25 12:17:45;;;;;;;13.50;6.55;;;10.40;99.90;;;;;;4983139;28;20486;-57
2023/10/25 12:20:13;;;;;;;16.35;6.82;;;10.50;99.90;;;;;;4975386;28;20055;-59
2023/10/25 12:22:55;;;;;;;12.80;7.35;;;10.60;99.90;;;;;;4975692;28;20042;-59
2023/10/25 12:25:24;;;;;;;12.18;6.53;;;10.90;99.90;;;;;;4977078;28;20046;-59
2023/10/25 12:27:52;;;;;;;14.23;7.38;;;11.00;99.90;;;;;;4973810;28;20397;-58
2023/10/25 12:30:20;;;;;;;11.57;6.68;;;11.20;99.90;;;;;;4989211;28;20054;-58
2023/10/25 12:32:47;;;;;;;12.65;7.13;;;11.40;99.90;;;;;;4989688;28;20050;-58
2023/10/25 12:35:16;;;;;;;11.00;5.75;;;11.60;99.90;;;;;;4989382;28;20073;-59
2023/10/25 12:37:43;;;;;;;12.20;6.63;;;11.70;99.90;;;;;;4989842;28;20050;-57
2023/10/25 12:40:11;;;;;;;14.48;6.57;;;11.80;99.90;;;;;;4974390;28;20054;-57
2023/10/25 12:42:39;;;;;;;10.48;5.97;;;11.80;99.90;;;;;;4987497;28;20055;-59
2023/10/25 12:45:08;;;;;;;10.07;5.80;;;11.90;99.90;;;;;;4985701;28;20047;-59
2023/10/25 12:47:36;;;;;;;10.23;6.03;;;12.30;99.90;;;;;;4971522;28;20043;-58
2023/10/25 12:50:04;;;;;;;14.20;7.25;;;12.60;99.90;;;;;;4980576;28;20046;-58
2023/10/25 12:52:32;;;;;;;11.73;6.30;;;12.90;99.90;;;;;;4978028;28;20065;-58